Time;durP1;ratioP1;P1;durP2;ratioP2;P2;SDS_P1;SDS_P2;PMS_P1;PMS_P2;Temp;Humidity;BMP_temperature;BMP_pressure;BME280_temperature;BME280_humidity;BME280_pressure;Samples;Min_cycle;Max_cycle;Signal;HPM_P1;HPM_P2
2023/05/17 00:02:20;;;;;;;18.73;4.85;;;8.10;99.90;;;;;;5046120;28;20056;-69
2023/05/17 00:04:47;;;;;;;16.02;3.28;;;8.10;99.90;;;;;;5054120;28;20094;-69
2023/05/17 00:07:14;;;;;;;16.52;4.28;;;8.10;99.90;;;;;;5050018;28;20099;-68
2023/05/17 00:09:41;;;;;;;20.63;4.45;;;8.00;99.90;;;;;;5050961;28;20063;-69
2023/05/17 00:12:10;;;;;;;18.30;3.90;;;8.00;99.90;;;;;;5051422;28;20577;-71
2023/05/17 00:14:37;;;;;;;22.73;4.85;;;7.90;99.90;;;;;;5051189;28;20048;-69
2023/05/17 00:17:04;;;;;;;18.75;3.88;;;7.90;99.90;;;;;;5051157;28;20049;-69
2023/05/17 00:19:31;;;;;;;15.98;4.10;;;7.90;99.90;;;;;;5050136;28;20048;-69
2023/05/17 00:21:58;;;;;;;18.60;4.10;;;7.90;99.90;;;;;;5051063;28;20057;-67
2023/05/17 00:24:26;;;;;;;17.98;4.00;;;7.90;99.90;;;;;;5051393;28;20102;-68
2023/05/17 00:26:52;;;;;;;14.27;3.85;;;7.90;99.90;;;;;;5050576;28;20049;-68
2023/05/17 00:29:21;;;;;;;12.82;4.22;;;7.90;99.90;;;;;;5050458;28;20075;-70
2023/05/17 00:31:48;;;;;;;18.17;4.22;;;7.90;99.90;;;;;;5051006;28;20439;-68
2023/05/17 00:34:14;;;;;;;18.60;4.38;;;7.90;99.90;;;;;;5049872;28;20045;-69
2023/05/17 00:36:41;;;;;;;15.18;4.53;;;7.90;99.90;;;;;;5050716;28;20053;-69
2023/05/17 00:39:08;;;;;;;22.92;4.10;;;8.00;99.90;;;;;;5050197;28;20455;-69
2023/05/17 00:41:35;;;;;;;22.92;4.55;;;8.00;99.90;;;;;;5050587;28;20061;-69
2023/05/17 00:44:02;;;;;;;16.70;3.55;;;8.10;99.90;;;;;;5050582;28;20523;-69
2023/05/17 00:46:32;;;;;;;23.10;4.18;;;8.10;99.90;;;;;;5050244;28;20049;-68
2023/05/17 00:48:59;;;;;;;17.42;4.22;;;8.10;99.90;;;;;;5050307;28;20095;-69
2023/05/17 00:51:26;;;;;;;20.67;4.53;;;8.30;99.90;;;;;;5050861;28;20103;-69
2023/05/17 00:53:53;;;;;;;17.40;4.20;;;8.20;99.90;;;;;;5050747;28;20053;-69
2023/05/17 00:56:20;;;;;;;25.77;4.40;;;8.20;99.90;;;;;;5049180;28;20053;-69
2023/05/17 00:58:47;;;;;;;21.00;4.78;;;8.30;99.90;;;;;;5050658;28;20052;-69
2023/05/17 01:01:14;;;;;;;25.52;5.40;;;8.40;99.90;;;;;;5050624;28;20060;-70
2023/05/17 01:03:42;;;;;;;14.57;3.78;;;8.40;99.90;;;;;;5049714;28;20045;-70
2023/05/17 01:06:09;;;;;;;17.58;3.85;;;8.50;99.90;;;;;;5053185;28;20106;-70
2023/05/17 01:08:36;;;;;;;19.10;5.30;;;8.50;99.90;;;;;;5052892;28;20064;-71
2023/05/17 01:11:14;;;;;;;24.13;4.43;;;8.60;99.90;;;;;;5072060;28;20048;-71
2023/05/17 01:13:48;;;;;;;14.57;3.67;;;8.60;99.90;;;;;;5052578;28;20442;-70
2023/05/17 01:16:22;;;;;;;22.35;5.88;;;8.60;99.90;;;;;;5071171;28;20106;-70
2023/05/17 01:18:58;;;;;;;23.05;3.97;;;8.50;99.90;;;;;;5070571;28;20113;-70
2023/05/17 01:21:36;;;;;;;19.60;4.47;;;8.40;99.90;;;;;;5052617;28;20102;-69
2023/05/17 01:24:16;;;;;;;11.20;3.45;;;8.30;99.90;;;;;;5052513;28;20060;-70
2023/05/17 01:26:49;;;;;;;18.05;3.60;;;8.20;99.90;;;;;;5053758;28;20483;-70
2023/05/17 01:29:17;;;;;;;17.52;4.88;;;8.20;99.90;;;;;;5071604;28;20052;-70
2023/05/17 01:31:45;;;;;;;13.80;3.72;;;8.20;99.90;;;;;;5053219;28;20084;-70
2023/05/17 01:34:12;;;;;;;24.58;4.22;;;8.00;99.90;;;;;;5051716;28;20403;-71
2023/05/17 01:36:41;;;;;;;16.90;3.58;;;8.10;99.90;;;;;;5071754;28;20075;-71
2023/05/17 01:39:08;;;;;;;24.13;4.00;;;8.00;99.90;;;;;;5056886;28;20139;-70
2023/05/17 01:41:41;;;;;;;15.88;2.70;;;8.10;99.90;;;;;;5072576;28;20101;-70
2023/05/17 01:44:17;;;;;;;16.20;2.90;;;8.10;99.90;;;;;;5074406;28;20450;-69
2023/05/17 01:46:46;;;;;;;10.13;2.70;;;8.10;99.90;;;;;;5056949;28;20450;-70
2023/05/17 01:49:21;;;;;;;11.75;3.10;;;8.00;99.90;;;;;;5056814;28;20056;-70
2023/05/17 01:51:50;;;;;;;16.83;3.65;;;8.00;99.90;;;;;;5056297;28;20495;-68
2023/05/17 01:54:22;;;;;;;9.10;2.35;;;8.00;99.90;;;;;;5074727;28;20121;-68
2023/05/17 01:56:55;;;;;;;8.77;2.60;;;7.90;99.90;;;;;;5074955;28;20113;-69
2023/05/17 01:59:25;;;;;;;14.70;3.33;;;7.80;99.90;;;;;;5074040;28;20041;-69
2023/05/17 02:01:55;;;;;;;8.05;2.22;;;7.80;99.90;;;;;;5056860;28;20381;-68
2023/05/17 02:04:22;;;;;;;7.85;2.58;;;7.70;99.90;;;;;;5056783;28;20486;-68
2023/05/17 02:06:49;;;;;;;13.27;2.67;;;7.70;99.90;;;;;;5055831;28;20458;-68
2023/05/17 02:09:16;;;;;;;11.55;2.45;;;7.70;99.90;;;;;;5056322;28;20045;-69
2023/05/17 02:11:43;;;;;;;11.20;2.88;;;7.70;99.90;;;;;;5053796;28;20048;-69
2023/05/17 02:14:09;;;;;;;11.70;2.53;;;7.70;99.90;;;;;;5056504;28;20059;-70
2023/05/17 02:16:38;;;;;;;11.25;2.88;;;7.70;99.90;;;;;;5056341;28;20059;-67
2023/05/17 02:19:06;;;;;;;11.35;2.80;;;7.80;99.90;;;;;;5073541;28;20044;-69
2023/05/17 02:21:33;;;;;;;11.88;3.15;;;7.80;99.90;;;;;;5074483;28;20412;-69
2023/05/17 02:24:00;;;;;;;8.73;2.28;;;7.80;99.90;;;;;;5074154;28;20106;-69
2023/05/17 02:26:27;;;;;;;11.05;2.58;;;7.80;99.90;;;;;;5073519;28;20044;-69
2023/05/17 02:28:54;;;;;;;7.22;2.25;;;7.80;99.90;;;;;;5056459;28;20087;-67
2023/05/17 02:31:21;;;;;;;12.43;3.55;;;7.70;99.90;;;;;;5074132;28;20491;-69
2023/05/17 02:33:49;;;;;;;13.88;2.95;;;7.80;99.90;;;;;;5053394;28;20132;-68
2023/05/17 02:36:16;;;;;;;16.30;3.20;;;7.90;99.90;;;;;;5056170;28;20113;-69
2023/05/17 02:38:43;;;;;;;9.77;3.13;;;7.90;99.90;;;;;;5073978;28;20044;-69
2023/05/17 02:41:10;;;;;;;15.55;2.95;;;8.00;99.90;;;;;;5055243;28;20060;-69
2023/05/17 02:43:37;;;;;;;11.48;2.92;;;8.00;99.90;;;;;;5055671;28;20052;-69
2023/05/17 02:46:04;;;;;;;10.05;2.55;;;8.10;99.90;;;;;;5055774;28;20060;-69
2023/05/17 02:48:31;;;;;;;9.82;2.85;;;8.10;99.90;;;;;;5055014;28;20538;-70
2023/05/17 02:50:59;;;;;;;9.88;3.05;;;8.10;99.90;;;;;;5055698;28;20385;-70
2023/05/17 02:53:26;;;;;;;6.45;2.30;;;8.00;99.90;;;;;;5073751;28;20082;-69
2023/05/17 02:55:56;;;;;;;13.82;3.40;;;8.00;99.90;;;;;;5070721;28;20044;-71
2023/05/17 02:58:23;;;;;;;11.23;3.95;;;8.00;99.90;;;;;;5073461;28;20061;-69
2023/05/17 03:00:50;;;;;;;11.00;3.22;;;7.90;99.90;;;;;;5055531;28;20507;-69
2023/05/17 03:03:17;;;;;;;14.63;2.83;;;7.90;99.90;;;;;;5072883;28;20123;-69
2023/05/17 03:05:44;;;;;;;14.80;3.38;;;7.90;99.90;;;;;;5055450;28;20045;-70
2023/05/17 03:08:12;;;;;;;10.38;3.40;;;7.90;99.90;;;;;;5072436;28;20109;-69
2023/05/17 03:10:39;;;;;;;11.50;2.65;;;8.00;99.90;;;;;;5073119;28;20067;-69
2023/05/17 03:13:06;;;;;;;11.63;3.00;;;7.90;99.90;;;;;;5053088;28;20067;-69
2023/05/17 03:15:33;;;;;;;11.70;2.88;;;7.90;99.90;;;;;;5072470;28;20052;-69
2023/05/17 03:18:00;;;;;;;18.50;3.33;;;7.80;99.90;;;;;;5073238;28;20115;-69
2023/05/17 03:20:27;;;;;;;15.52;3.05;;;7.80;99.90;;;;;;5072679;28;20064;-69
2023/05/17 03:22:54;;;;;;;10.98;2.63;;;7.70;99.90;;;;;;5054450;28;20109;-69
2023/05/17 03:25:22;;;;;;;7.55;2.75;;;7.60;99.90;;;;;;5072604;28;20048;-69
2023/05/17 03:27:49;;;;;;;11.00;2.97;;;7.50;99.90;;;;;;5054844;28;20045;-68
2023/05/17 03:30:16;;;;;;;11.85;2.28;;;8.40;99.90;;;;;;5072053;28;20383;-68
2023/05/17 03:32:43;;;;;;;10.32;2.50;;;7.40;99.90;;;;;;5072735;28;20049;-68
2023/05/17 03:35:10;;;;;;;10.85;2.17;;;7.40;99.90;;;;;;5054485;28;20052;-68
2023/05/17 03:37:37;;;;;;;15.13;2.80;;;7.40;99.90;;;;;;5071834;28;20049;-69
2023/05/17 03:40:04;;;;;;;13.00;2.85;;;7.50;99.90;;;;;;5072523;28;20090;-69
2023/05/17 03:42:32;;;;;;;9.82;1.90;;;7.60;99.90;;;;;;5054662;28;20059;-69
2023/05/17 03:45:00;;;;;;;7.95;2.40;;;7.60;99.90;;;;;;5051875;28;20048;-68
2023/05/17 03:47:27;;;;;;;10.70;1.88;;;7.70;99.90;;;;;;5054347;28;20141;-69
2023/05/17 03:49:54;;;;;;;9.85;2.83;;;7.80;99.90;;;;;;5068914;28;20067;-68
2023/05/17 03:52:21;;;;;;;11.05;2.38;;;7.80;99.90;;;;;;5047239;28;20442;-68
2023/05/17 03:54:48;;;;;;;7.65;1.90;;;7.90;99.90;;;;;;5049332;28;20390;-69
2023/05/17 03:57:15;;;;;;;8.07;2.10;;;8.70;99.90;;;;;;5071466;28;20098;-69
2023/05/17 03:59:43;;;;;;;7.68;1.98;;;8.00;99.90;;;;;;5048705;28;20158;-69
2023/05/17 04:02:10;;;;;;;6.55;2.25;;;8.00;99.90;;;;;;5053676;28;20048;-69
2023/05/17 04:04:37;;;;;;;13.90;2.63;;;8.00;99.90;;;;;;5069211;28;20040;-69
2023/05/17 04:07:04;;;;;;;9.15;2.28;;;8.00;99.90;;;;;;5070814;28;20052;-69
2023/05/17 04:09:33;;;;;;;9.13;2.22;;;8.00;99.90;;;;;;5069752;28;20055;-68
2023/05/17 04:12:00;;;;;;;10.13;3.20;;;8.10;99.90;;;;;;5070766;28;20094;-69
2023/05/17 04:14:27;;;;;;;10.13;1.95;;;8.10;99.90;;;;;;5049531;28;20079;-69
2023/05/17 04:16:56;;;;;;;10.10;1.80;;;8.10;99.90;;;;;;5053320;28;20056;-69
2023/05/17 04:19:22;;;;;;;11.38;2.95;;;8.20;99.90;;;;;;5069752;28;20107;-69
2023/05/17 04:21:50;;;;;;;9.65;2.58;;;8.30;99.90;;;;;;5070649;28;20193;-70
2023/05/17 04:24:17;;;;;;;10.55;1.98;;;8.30;99.90;;;;;;5070257;28;20044;-69
2023/05/17 04:26:44;;;;;;;17.08;2.47;;;8.30;99.90;;;;;;5051925;28;20059;-69
2023/05/17 04:29:11;;;;;;;7.57;1.95;;;8.40;99.90;;;;;;5069803;28;20508;-69
2023/05/17 04:31:38;;;;;;;18.23;2.97;;;8.40;99.90;;;;;;5051518;28;20492;-69
2023/05/17 04:34:06;;;;;;;7.95;2.65;;;8.50;99.90;;;;;;5070726;28;20045;-69
2023/05/17 04:36:33;;;;;;;7.60;2.28;;;8.50;99.90;;;;;;5067595;28;20110;-69
2023/05/17 04:39:02;;;;;;;10.93;3.13;;;8.60;99.90;;;;;;5051700;28;20048;-76
2023/05/17 04:41:30;;;;;;;9.07;3.17;;;8.60;99.90;;;;;;5067487;28;20126;-81
2023/05/17 04:43:57;;;;;;;8.38;2.00;;;8.60;99.90;;;;;;5070957;28;20055;-82
2023/05/17 04:46:24;;;;;;;12.30;2.10;;;8.70;99.90;;;;;;5050823;28;20060;-79
2023/05/17 04:48:52;;;;;;;7.85;1.77;;;8.00;99.90;;;;;;5071215;28;20119;-81
2023/05/17 04:51:20;;;;;;;10.85;2.08;;;8.70;99.90;;;;;;5052669;28;20381;-79
2023/05/17 04:53:47;;;;;;;4.85;1.40;;;8.80;99.90;;;;;;5052474;28;20797;-69
2023/05/17 04:56:14;;;;;;;11.82;3.13;;;8.80;99.90;;;;;;5051026;28;20511;-69
2023/05/17 04:58:41;;;;;;;7.05;2.05;;;8.80;99.90;;;;;;5071067;28;20408;-71
2023/05/17 05:01:08;;;;;;;7.45;1.85;;;8.80;99.90;;;;;;5049022;28;20495;-69
2023/05/17 05:03:35;;;;;;;7.38;1.73;;;9.10;99.90;;;;;;5049980;28;20052;-67
2023/05/17 05:06:02;;;;;;;10.38;1.95;;;9.20;99.90;;;;;;5067885;28;20041;-67
2023/05/17 05:08:32;;;;;;;8.35;1.52;;;9.20;99.90;;;;;;5067017;28;20558;-69
2023/05/17 05:10:59;;;;;;;8.57;2.10;;;9.30;99.90;;;;;;5052883;28;20056;-68
2023/05/17 05:13:26;;;;;;;9.85;2.30;;;9.20;99.90;;;;;;5055439;28;20045;-69
2023/05/17 05:15:53;;;;;;;7.88;2.45;;;9.30;99.90;;;;;;5073782;28;20052;-70
2023/05/17 05:18:20;;;;;;;6.13;1.63;;;9.30;99.90;;;;;;5070515;28;20048;-70
2023/05/17 05:20:49;;;;;;;9.27;3.08;;;9.30;99.90;;;;;;5074073;28;20053;-78
2023/05/17 05:23:17;;;;;;;8.13;1.73;;;9.50;99.90;;;;;;5054131;28;20045;-77
2023/05/17 05:25:46;;;;;;;6.88;1.98;;;9.40;99.90;;;;;;5054437;28;20044;-78
2023/05/17 05:28:13;;;;;;;9.65;1.65;;;9.70;99.90;;;;;;5074002;28;20067;-80
2023/05/17 05:30:40;;;;;;;5.88;1.90;;;9.60;99.90;;;;;;5077522;28;20045;-69
2023/05/17 05:33:07;;;;;;;9.27;1.77;;;9.60;99.90;;;;;;5072355;28;20049;-70
2023/05/17 05:35:34;;;;;;;11.68;2.00;;;9.80;99.90;;;;;;5056391;28;20065;-69
2023/05/17 05:38:01;;;;;;;12.80;2.42;;;10.10;99.90;;;;;;5054336;28;20052;-69
2023/05/17 05:40:28;;;;;;;5.22;1.77;;;10.20;99.90;;;;;;5056569;28;20066;-70
2023/05/17 05:42:56;;;;;;;14.43;2.83;;;10.40;99.90;;;;;;5072309;28;20068;-69
2023/05/17 05:45:23;;;;;;;11.15;2.38;;;10.50;99.90;;;;;;5056441;28;20060;-69
2023/05/17 05:47:50;;;;;;;9.68;2.85;;;10.50;99.90;;;;;;5054342;28;20056;-68
2023/05/17 05:50:17;;;;;;;8.43;2.70;;;10.40;99.90;;;;;;5073500;28;20568;-70
2023/05/17 05:52:44;;;;;;;13.48;2.55;;;10.50;99.90;;;;;;5072483;28;20050;-69
2023/05/17 05:55:11;;;;;;;10.88;2.83;;;10.40;99.90;;;;;;5072724;28;20049;-69
2023/05/17 05:57:38;;;;;;;9.82;2.42;;;10.40;99.90;;;;;;5070989;28;20040;-69
2023/05/17 06:00:08;;;;;;;9.07;2.72;;;10.50;99.90;;;;;;5072928;28;20048;-69
2023/05/17 06:02:36;;;;;;;8.02;2.33;;;10.60;99.90;;;;;;5073842;28;20060;-69
2023/05/17 06:05:03;;;;;;;8.90;2.70;;;10.70;99.90;;;;;;5052909;28;20136;-69
2023/05/17 06:07:30;;;;;;;10.15;2.70;;;10.80;99.90;;;;;;5052539;28;20512;-69
2023/05/17 06:09:57;;;;;;;16.23;3.13;;;11.00;99.90;;;;;;5056264;28;20408;-68
2023/05/17 06:12:24;;;;;;;11.60;2.92;;;11.10;99.90;;;;;;5055974;28;20079;-68
2023/05/17 06:14:51;;;;;;;11.82;2.75;;;11.40;99.90;;;;;;5074376;28;20068;-69
2023/05/17 06:17:20;;;;;;;15.43;2.85;;;11.50;99.90;;;;;;5074052;28;20512;-69
2023/05/17 06:19:47;;;;;;;11.60;2.92;;;11.60;99.90;;;;;;5055836;28;20052;-68
2023/05/17 06:22:14;;;;;;;13.40;3.45;;;11.70;99.90;;;;;;5055604;28;20135;-68
2023/05/17 06:24:41;;;;;;;11.18;2.78;;;11.60;99.90;;;;;;5071889;28;20040;-68
2023/05/17 06:27:08;;;;;;;12.48;3.28;;;11.60;99.90;;;;;;5073317;28;20106;-68
2023/05/17 06:29:35;;;;;;;13.68;3.28;;;11.50;99.90;;;;;;5056254;28;20059;-68
2023/05/17 06:32:02;;;;;;;14.05;2.72;;;11.30;99.90;;;;;;5055513;28;20055;-68
2023/05/17 06:34:30;;;;;;;15.80;3.70;;;11.30;99.90;;;;;;5056200;28;20494;-68
2023/05/17 06:36:58;;;;;;;17.50;2.85;;;11.70;99.90;;;;;;5056187;28;20451;-68
2023/05/17 06:39:25;;;;;;;11.27;3.13;;;11.10;99.90;;;;;;5055110;28;20051;-68
2023/05/17 06:41:51;;;;;;;7.95;2.45;;;11.30;99.90;;;;;;5071956;28;20114;-67
2023/05/17 06:44:18;;;;;;;13.20;3.05;;;11.30;99.90;;;;;;5055418;28;20055;-68
2023/05/17 06:46:45;;;;;;;17.08;3.28;;;11.30;99.90;;;;;;5055401;28;20442;-68
2023/05/17 06:49:12;;;;;;;10.60;2.58;;;11.30;99.90;;;;;;5073569;28;20045;-68
2023/05/17 06:51:40;;;;;;;9.50;2.45;;;11.30;99.90;;;;;;5073716;28;20075;-68
2023/05/17 06:54:07;;;;;;;12.88;2.70;;;11.30;99.90;;;;;;5055084;28;20045;-68
2023/05/17 06:56:34;;;;;;;9.85;2.50;;;12.10;99.90;;;;;;5055582;28;20052;-69
2023/05/17 06:59:01;;;;;;;10.43;2.67;;;11.40;99.90;;;;;;5055416;28;20053;-68
2023/05/17 07:01:29;;;;;;;9.27;2.95;;;11.50;99.90;;;;;;5055069;28;20056;-68
2023/05/17 07:03:56;;;;;;;9.77;3.08;;;11.50;99.90;;;;;;5053219;28;20047;-69
2023/05/17 07:06:23;;;;;;;11.00;3.10;;;11.50;99.90;;;;;;5051930;28;20232;-69
2023/05/17 07:08:51;;;;;;;9.48;2.20;;;11.60;99.90;;;;;;5052895;28;20052;-68
2023/05/17 07:11:18;;;;;;;9.20;2.40;;;11.50;99.90;;;;;;5052166;28;20064;-69
2023/05/17 07:13:45;;;;;;;7.22;2.33;;;11.50;99.90;;;;;;5053211;28;20052;-69
2023/05/17 07:16:11;;;;;;;8.48;2.70;;;11.50;99.90;;;;;;5049487;28;20052;-68
2023/05/17 07:18:38;;;;;;;10.50;2.20;;;11.70;99.90;;;;;;5051711;28;20049;-69
2023/05/17 07:21:05;;;;;;;10.48;2.38;;;11.60;99.90;;;;;;5052222;28;20056;-69
2023/05/17 07:23:32;;;;;;;11.07;2.53;;;11.60;99.90;;;;;;5051072;28;20056;-69
2023/05/17 07:26:00;;;;;;;9.40;2.30;;;11.80;99.90;;;;;;5053140;28;20052;-68
2023/05/17 07:28:28;;;;;;;14.07;2.72;;;11.80;99.90;;;;;;5052344;28;20048;-68
2023/05/17 07:30:55;;;;;;;14.98;2.47;;;11.90;99.90;;;;;;5051624;28;20052;-69
2023/05/17 07:33:22;;;;;;;15.07;3.35;;;12.10;99.90;;;;;;5049630;28;20056;-68
2023/05/17 07:35:49;;;;;;;12.02;3.00;;;12.20;99.90;;;;;;5050325;28;20064;-69
2023/05/17 07:38:16;;;;;;;13.15;3.47;;;12.60;99.90;;;;;;5052624;28;20044;-69
2023/05/17 07:40:43;;;;;;;10.98;3.38;;;13.20;99.90;;;;;;5051744;28;20049;-69
2023/05/17 07:43:11;;;;;;;12.02;3.20;;;13.90;99.60;;;;;;5050926;28;20055;-68
2023/05/17 07:45:38;;;;;;;11.05;3.22;;;14.00;98.00;;;;;;5051252;28;20057;-69
2023/05/17 07:48:05;;;;;;;9.73;2.83;;;14.10;97.90;;;;;;5051159;28;20496;-69
2023/05/17 07:50:32;;;;;;;11.52;3.20;;;14.00;97.70;;;;;;5050744;28;20048;-68
2023/05/17 07:52:59;;;;;;;6.25;2.83;;;13.70;97.20;;;;;;5052645;28;20044;-68
2023/05/17 07:55:26;;;;;;;8.57;2.67;;;13.50;96.80;;;;;;5052506;28;20052;-69
2023/05/17 07:57:53;;;;;;;10.88;2.40;;;13.30;97.40;;;;;;5049776;28;20057;-68
2023/05/17 08:00:22;;;;;;;13.70;3.47;;;13.10;97.50;;;;;;5051330;28;20057;-69
2023/05/17 08:02:49;;;;;;;13.80;3.33;;;12.90;97.80;;;;;;5050978;28;20053;-68
2023/05/17 08:05:16;;;;;;;10.60;2.25;;;12.80;98.50;;;;;;5051657;28;20037;-68
2023/05/17 08:07:43;;;;;;;8.07;2.75;;;12.90;99.10;;;;;;5054251;28;20056;-68
2023/05/17 08:10:11;;;;;;;12.55;2.67;;;13.30;99.50;;;;;;5070225;28;20040;-68
2023/05/17 08:12:38;;;;;;;7.68;2.67;;;14.40;99.20;;;;;;5053731;28;20068;-68
2023/05/17 08:15:06;;;;;;;10.18;2.10;;;15.00;97.60;;;;;;5072185;28;20044;-69
2023/05/17 08:17:34;;;;;;;12.20;2.50;;;15.00;96.90;;;;;;5069285;28;20048;-69
2023/05/17 08:20:01;;;;;;;7.18;2.30;;;14.80;96.10;;;;;;5054314;28;20060;-69
2023/05/17 08:22:28;;;;;;;9.00;2.13;;;14.60;95.70;;;;;;5054343;28;20044;-68
2023/05/17 08:24:55;;;;;;;8.18;2.20;;;14.60;94.80;;;;;;5053178;28;20059;-68
2023/05/17 08:27:24;;;;;;;8.05;2.00;;;14.70;94.70;;;;;;5053988;28;20049;-68
2023/05/17 08:29:53;;;;;;;11.60;2.70;;;14.80;94.80;;;;;;5072012;28;20041;-69
2023/05/17 08:32:22;;;;;;;6.57;2.03;;;14.90;94.30;;;;;;5053666;28;20080;-68
2023/05/17 08:34:50;;;;;;;9.32;2.42;;;15.30;93.90;;;;;;5072005;28;20045;-69
2023/05/17 08:37:19;;;;;;;6.80;1.88;;;15.70;92.80;;;;;;5052051;28;20048;-68
2023/05/17 08:39:48;;;;;;;9.25;1.90;;;16.30;91.90;;;;;;5071332;28;20044;-69
2023/05/17 08:42:21;;;;;;;4.75;1.55;;;16.30;91.40;;;;;;5053800;28;20128;-71
2023/05/17 08:44:49;;;;;;;6.63;1.98;;;16.30;90.40;;;;;;5053922;28;20048;-67
2023/05/17 08:47:24;;;;;;;8.43;2.17;;;16.10;90.80;;;;;;5054901;28;20504;-68
2023/05/17 08:49:56;;;;;;;10.35;2.33;;;16.10;90.90;;;;;;5057862;28;20519;-69
2023/05/17 08:52:23;;;;;;;6.97;1.88;;;15.90;88.50;;;;;;5056019;28;20075;-69
2023/05/17 08:54:50;;;;;;;7.25;1.90;;;16.20;89.60;;;;;;5057065;28;20052;-68
2023/05/17 08:57:17;;;;;;;8.55;1.90;;;17.00;88.40;;;;;;5075985;28;20067;-69
2023/05/17 08:59:46;;;;;;;8.23;2.25;;;17.00;85.90;;;;;;5057133;28;20074;-69
2023/05/17 09:02:14;;;;;;;9.68;2.10;;;16.90;86.50;;;;;;5058026;28;20048;-69
2023/05/17 09:04:41;;;;;;;8.73;2.33;;;16.50;86.60;;;;;;5073828;28;20044;-68
2023/05/17 09:07:10;;;;;;;8.27;2.25;;;16.10;87.20;;;;;;5074796;28;20063;-68
2023/05/17 09:09:37;;;;;;;9.27;2.03;;;15.80;89.50;;;;;;5057378;28;20059;-69
2023/05/17 09:12:04;;;;;;;5.85;1.80;;;15.70;90.40;;;;;;5075642;28;20389;-68
2023/05/17 09:14:35;;;;;;;7.05;1.83;;;15.80;90.30;;;;;;5056844;28;20048;-69
2023/05/17 09:17:02;;;;;;;9.43;1.85;;;15.90;90.00;;;;;;5057687;28;20044;-68
2023/05/17 09:19:31;;;;;;;6.35;1.60;;;16.00;89.90;;;;;;5073257;28;20052;-68
2023/05/17 09:22:01;;;;;;;10.35;1.92;;;16.20;88.50;;;;;;5074516;28;20496;-68
2023/05/17 09:24:30;;;;;;;7.00;1.95;;;16.40;87.30;;;;;;5057522;28;20051;-69
2023/05/17 09:27:01;;;;;;;6.95;1.95;;;17.20;86.40;;;;;;5057301;28;20128;-68
2023/05/17 09:29:31;;;;;;;7.25;1.65;;;18.30;84.90;;;;;;5054497;28;20087;-69
2023/05/17 09:32:11;;;;;;;5.40;1.37;;;19.30;84.00;;;;;;5075069;28;20102;-68
2023/05/17 09:34:39;;;;;;;6.93;1.73;;;19.60;79.00;;;;;;5055590;28;20053;-70
2023/05/17 09:37:07;;;;;;;6.72;1.63;;;19.10;76.90;;;;;;5056496;28;20127;-70
2023/05/17 09:39:36;;;;;;;6.82;1.77;;;18.70;78.10;;;;;;5056990;28;20063;-68
2023/05/17 09:42:04;;;;;;;9.80;2.13;;;19.30;77.10;;;;;;5074410;28;20048;-68
2023/05/17 09:44:31;;;;;;;4.70;1.52;;;19.40;76.40;;;;;;5056698;28;20385;-69
2023/05/17 09:46:59;;;;;;;8.02;1.92;;;18.90;77.70;;;;;;5074733;28;20045;-68
2023/05/17 09:49:27;;;;;;;7.45;1.90;;;18.70;78.60;;;;;;5072134;28;20101;-68
2023/05/17 09:51:55;;;;;;;5.68;1.83;;;18.60;78.30;;;;;;5074809;28;20116;-68
2023/05/17 09:54:22;;;;;;;7.35;1.73;;;18.70;76.60;;;;;;5056950;28;20121;-69
2023/05/17 09:56:56;;;;;;;8.20;2.17;;;19.30;78.00;;;;;;5053603;28;20048;-69
2023/05/17 09:59:27;;;;;;;3.70;1.50;;;19.80;75.70;;;;;;5074237;28;20127;-69
2023/05/17 10:01:54;;;;;;;7.45;1.92;;;19.60;75.10;;;;;;5056563;28;20059;-69
2023/05/17 10:04:23;;;;;;;8.88;1.80;;;20.10;75.40;;;;;;5074158;28;20407;-69
2023/05/17 10:06:53;;;;;;;6.00;1.40;;;20.10;74.60;;;;;;5053185;28;20110;-69
2023/05/17 10:09:22;;;;;;;5.28;1.85;;;19.50;73.10;;;;;;5053177;28;20047;-69
2023/05/17 10:11:52;;;;;;;4.20;1.35;;;19.10;73.90;;;;;;5053674;28;20045;-69
2023/05/17 10:14:23;;;;;;;5.28;1.60;;;18.80;75.20;;;;;;5053476;28;20052;-69
2023/05/17 10:16:51;;;;;;;7.20;1.73;;;18.50;74.40;;;;;;5053196;28;20049;-69
2023/05/17 10:19:20;;;;;;;6.20;1.85;;;18.40;75.90;;;;;;5052750;28;20071;-69
2023/05/17 10:21:49;;;;;;;6.80;2.33;;;18.00;76.00;;;;;;5051316;28;20515;-70
2023/05/17 10:24:17;;;;;;;7.40;1.90;;;17.90;76.20;;;;;;5052463;28;20141;-69
2023/05/17 10:26:44;;;;;;;7.05;1.63;;;17.80;76.60;;;;;;5052903;28;20131;-67
2023/05/17 10:29:11;;;;;;;6.90;2.33;;;17.60;77.50;;;;;;5051184;28;20496;-67
2023/05/17 10:31:43;;;;;;;5.40;1.60;;;17.60;78.30;;;;;;5052253;28;20057;-68
2023/05/17 10:34:12;;;;;;;6.95;1.67;;;17.60;77.30;;;;;;5054254;28;20045;-68
2023/05/17 10:36:42;;;;;;;7.30;2.00;;;17.70;76.60;;;;;;5052898;28;20049;-69
2023/05/17 10:39:09;;;;;;;5.85;1.98;;;17.80;76.30;;;;;;5053244;28;20119;-69
2023/05/17 10:41:40;;;;;;;5.63;1.65;;;17.90;76.20;;;;;;5053978;28;20106;-69
2023/05/17 10:44:09;;;;;;;5.63;2.03;;;17.80;76.50;;;;;;5051660;28;20048;-69
2023/05/17 10:46:36;;;;;;;7.32;2.15;;;17.50;77.90;;;;;;5053314;28;20182;-69
2023/05/17 10:49:05;;;;;;;9.23;2.03;;;17.40;78.60;;;;;;5053784;28;20111;-69
2023/05/17 10:51:35;;;;;;;8.07;1.98;;;17.10;79.70;;;;;;5050582;28;20049;-69
2023/05/17 10:54:10;;;;;;;7.80;2.00;;;16.90;80.00;;;;;;5053338;28;20045;-69
2023/05/17 10:56:41;;;;;;;9.90;2.00;;;17.00;80.30;;;;;;5052445;28;20053;-68
2023/05/17 10:59:20;;;;;;;6.60;1.70;;;17.20;80.20;;;;;;5053491;28;20132;-68
2023/05/17 11:02:09;;;;;;;7.13;1.90;;;17.50;79.50;;;;;;5053373;28;20072;-68
2023/05/17 11:04:39;;;;;;;8.90;1.70;;;17.00;78.70;;;;;;5046582;28;20527;-68
2023/05/17 11:07:28;;;;;;;9.20;2.35;;;17.00;79.80;;;;;;5059714;28;20044;-69
2023/05/17 11:09:56;;;;;;;6.75;1.95;;;16.90;79.90;;;;;;5073078;28;20051;-69
2023/05/17 11:12:35;;;;;;;8.27;2.03;;;16.80;79.50;;;;;;5073008;28;20051;-68
2023/05/17 11:15:06;;;;;;;9.15;2.20;;;17.00;79.00;;;;;;5054933;28;20048;-68
2023/05/17 11:17:35;;;;;;;6.38;2.10;;;17.10;77.50;;;;;;5071764;28;20094;-68
2023/05/17 11:20:09;;;;;;;6.38;1.75;;;18.10;79.00;;;;;;5055486;28;20391;-69
2023/05/17 11:22:39;;;;;;;5.90;1.70;;;19.00;76.40;;;;;;5052505;28;20496;-69
2023/05/17 11:25:10;;;;;;;6.45;2.15;;;18.90;75.80;;;;;;5072799;28;20060;-69
2023/05/17 11:27:40;;;;;;;10.77;2.55;;;18.50;75.40;;;;;;5072381;28;20084;-69
2023/05/17 11:30:20;;;;;;;10.17;2.13;;;18.90;75.80;;;;;;5053550;28;20052;-68
2023/05/17 11:32:48;;;;;;;;;;;18.90;75.80;;;;;;5055462;28;20291;-69
2023/05/17 11:35:17;;;;;;;7.22;2.03;;;19.10;74.30;;;;;;5054425;28;19920;-70
2023/05/17 11:37:45;;;;;;;6.35;1.98;;;19.40;74.90;;;;;;5052705;28;20087;-70
2023/05/17 11:40:13;;;;;;;7.18;1.88;;;19.70;74.50;;;;;;5072466;28;20056;-69
2023/05/17 11:42:40;;;;;;;6.63;1.85;;;19.80;73.60;;;;;;5071943;28;20500;-70
2023/05/17 11:45:08;;;;;;;6.55;1.80;;;19.90;73.90;;;;;;5054647;28;20044;-69
2023/05/17 11:47:40;;;;;;;7.40;2.00;;;19.50;72.40;;;;;;5072509;28;20056;-68
2023/05/17 11:50:08;;;;;;;8.13;2.20;;;19.00;71.10;;;;;;5052362;28;20098;-69
2023/05/17 11:52:36;;;;;;;5.35;1.60;;;19.10;72.40;;;;;;5054557;28;20063;-69
2023/05/17 11:55:05;;;;;;;9.05;2.20;;;19.90;73.50;;;;;;5054705;28;20055;-69
2023/05/17 11:57:32;;;;;;;8.68;1.85;;;20.00;72.60;;;;;;5052040;28;20049;-69
2023/05/17 12:00:01;;;;;;;7.15;1.90;;;19.90;72.60;;;;;;5054497;28;20063;-69
2023/05/17 12:02:29;;;;;;;10.65;2.20;;;19.70;72.40;;;;;;5072207;28;20097;-69
2023/05/17 12:04:56;;;;;;;3.85;1.50;;;19.80;70.40;;;;;;5053937;28;20055;-69
2023/05/17 12:07:24;;;;;;;6.22;1.80;;;20.50;71.70;;;;;;5072156;28;20055;-69
2023/05/17 12:09:52;;;;;;;6.45;1.73;;;21.00;69.60;;;;;;5051666;28;20500;-68
2023/05/17 12:12:21;;;;;;;5.80;1.75;;;20.50;69.30;;;;;;5072089;28;20399;-68
2023/05/17 12:14:49;;;;;;;6.55;1.80;;;19.90;69.70;;;;;;5072281;28;20045;-69
2023/05/17 12:17:28;;;;;;;9.50;1.90;;;19.70;70.60;;;;;;5053627;28;20480;-68
2023/05/17 12:19:55;;;;;;;7.07;1.70;;;19.50;70.90;;;;;;5052280;28;20071;-69
2023/05/17 12:22:22;;;;;;;6.72;2.08;;;20.30;72.70;;;;;;5071706;28;20044;-69
2023/05/17 12:24:48;;;;;;;7.30;1.77;;;21.00;72.90;;;;;;5071655;28;20056;-69
2023/05/17 12:27:25;;;;;;;9.07;1.70;;;21.20;70.70;;;;;;5071931;28;20285;-70
2023/05/17 12:29:53;;;;;;;7.90;1.75;;;20.60;69.00;;;;;;5052291;28;20128;-69
2023/05/17 12:32:20;;;;;;;6.10;2.17;;;20.40;69.40;;;;;;5053535;28;20124;-69
2023/05/17 12:34:48;;;;;;;6.28;1.67;;;20.50;69.90;;;;;;5054294;28;20546;-69
2023/05/17 12:37:15;;;;;;;6.47;2.03;;;21.30;69.60;;;;;;5054062;28;20052;-69
2023/05/17 12:39:43;;;;;;;5.72;2.00;;;22.10;68.60;;;;;;5053567;28;20052;-69
2023/05/17 12:42:10;;;;;;;7.70;1.95;;;22.50;67.20;;;;;;5071751;28;20412;-70
2023/05/17 12:44:39;;;;;;;4.93;1.67;;;22.60;66.10;;;;;;5072091;28;20105;-69
2023/05/17 12:47:06;;;;;;;10.82;1.95;;;22.50;66.10;;;;;;5071377;28;20045;-69
2023/05/17 12:49:38;;;;;;;8.10;2.28;;;22.50;67.10;;;;;;5085468;28;20056;-69
2023/05/17 12:52:06;;;;;;;10.63;2.13;;;22.70;67.80;;;;;;5053201;28;20810;-69
2023/05/17 12:54:33;;;;;;;7.18;2.00;;;22.00;66.80;;;;;;5053898;28;20064;-69